createdAt,value
2019-03-31T00:01:17.742Z,45.50
2019-03-31T00:03:48.520Z,41.53
2019-03-31T00:06:18.120Z,45.00
2019-03-31T00:08:47.738Z,45.80
2019-03-31T00:11:19.875Z,40.47
2019-03-31T00:13:49.479Z,42.80
2019-03-31T00:16:19.540Z,42.00
2019-03-31T00:18:51.005Z,43.90
2019-03-31T00:21:20.534Z,43.73
2019-03-31T00:23:50.421Z,45.00
2019-03-31T00:26:20.241Z,44.10
2019-03-31T00:28:49.861Z,45.43
2019-03-31T00:31:22.224Z,47.30
2019-03-31T00:33:52.126Z,45.40
2019-03-31T00:36:21.757Z,44.70
2019-03-31T00:38:51.890Z,44.60
2019-03-31T00:41:21.451Z,45.63
2019-03-31T00:43:50.999Z,45.50
2019-03-31T00:46:20.525Z,44.70
2019-03-31T00:48:50.214Z,44.80
2019-03-31T00:51:19.817Z,44.67
2019-03-31T00:53:49.400Z,44.57
2019-03-31T00:56:19.105Z,44.23
2019-03-31T00:58:48.695Z,44.70
2019-03-31T01:01:18.871Z,43.03
2019-03-31T01:03:48.743Z,44.00
2019-03-31T01:06:19.478Z,44.67
2019-03-31T01:08:49.089Z,46.47
2019-03-31T01:11:21.975Z,42.80
2019-03-31T01:13:52.082Z,45.77
2019-03-31T01:16:21.859Z,46.87
2019-03-31T01:18:51.602Z,49.70
2019-03-31T01:21:21.312Z,48.77
2019-03-31T01:23:50.920Z,50.30
2019-03-31T01:26:21.106Z,52.07
2019-03-31T01:28:50.774Z,53.70
2019-03-31T01:31:20.666Z,56.87
2019-03-31T01:33:50.473Z,58.70
2019-03-31T01:36:20.066Z,57.30
2019-03-31T01:38:49.635Z,57.00
2019-03-31T01:41:19.802Z,58.33
2019-03-31T01:43:49.404Z,57.17
2019-03-31T01:46:22.281Z,56.73
2019-03-31T01:48:52.234Z,55.80
2019-03-31T01:51:21.847Z,57.80
2019-03-31T01:53:51.451Z,52.97
2019-03-31T01:56:21.708Z,50.57
2019-03-31T01:58:51.339Z,50.20
2019-03-31T02:01:21.136Z,47.30
2019-03-31T02:03:50.770Z,44.13
2019-03-31T02:06:20.296Z,43.83
2019-03-31T02:08:49.849Z,41.70
2019-03-31T02:11:20.670Z,40.03
2019-03-31T02:13:50.202Z,39.50
2019-03-31T02:16:20.269Z,36.10
2019-03-31T02:18:49.836Z,35.50
2019-03-31T02:21:19.438Z,35.10
2019-03-31T02:23:49.039Z,33.90
2019-03-31T02:26:18.679Z,34.80
2019-03-31T02:28:48.251Z,34.27
2019-03-31T02:31:17.848Z,33.73
2019-03-31T02:33:48.028Z,32.67
2019-03-31T02:36:17.583Z,31.63
2019-03-31T02:38:47.221Z,30.40
2019-03-31T02:41:16.912Z,30.27
2019-03-31T02:43:46.595Z,27.80
2019-03-31T02:46:16.334Z,26.40
2019-03-31T02:48:45.888Z,25.00
2019-03-31T02:51:15.444Z,23.40
2019-03-31T02:53:45.095Z,22.63
2019-03-31T02:56:16.627Z,21.70
2019-03-31T02:58:46.832Z,21.40
2019-03-31T03:01:18.069Z,18.83
2019-03-31T03:03:49.966Z,18.97
2019-03-31T03:06:21.797Z,19.03
2019-03-31T03:08:52.565Z,19.43
2019-03-31T03:11:24.733Z,18.17
2019-03-31T03:13:55.083Z,19.80
2019-03-31T03:16:24.925Z,19.43
2019-03-31T03:18:54.618Z,18.73
2019-03-31T03:21:25.178Z,20.13
2019-03-31T03:23:55.686Z,20.83
2019-03-31T03:26:25.306Z,20.40
2019-03-31T03:28:54.890Z,20.03
2019-03-31T03:31:24.569Z,19.03
2019-03-31T03:33:54.334Z,19.40
2019-03-31T03:36:24.003Z,21.03
2019-03-31T03:38:53.702Z,20.50
2019-03-31T03:41:23.864Z,19.63
2019-03-31T03:43:57.060Z,19.30
2019-03-31T03:46:24.842Z,19.20
2019-03-31T03:48:54.781Z,19.70
2019-03-31T03:51:24.414Z,16.93
2019-03-31T03:53:54.075Z,19.40
2019-03-31T03:56:23.684Z,18.57
2019-03-31T03:58:53.618Z,18.10
2019-03-31T04:01:23.282Z,18.00
2019-03-31T04:03:52.898Z,19.97
2019-03-31T04:06:22.482Z,18.30
2019-03-31T04:08:52.003Z,17.57
2019-03-31T04:11:23.750Z,18.90
2019-03-31T04:13:53.406Z,19.20
2019-03-31T04:16:23.057Z,20.20
2019-03-31T04:18:53.456Z,21.00
2019-03-31T04:21:23.119Z,19.47
2019-03-31T04:23:52.822Z,21.07
2019-03-31T04:26:22.387Z,21.10
2019-03-31T04:28:51.989Z,22.50
2019-03-31T04:31:21.813Z,20.37
2019-03-31T04:33:52.971Z,19.40
2019-03-31T04:36:23.535Z,19.30
2019-03-31T04:38:53.218Z,22.40
2019-03-31T04:41:22.874Z,19.10
2019-03-31T04:43:55.993Z,19.70
2019-03-31T04:46:25.943Z,18.70
2019-03-31T04:48:55.689Z,18.13
2019-03-31T04:51:25.212Z,18.37
2019-03-31T04:53:54.752Z,18.00
2019-03-31T04:56:24.382Z,18.03
2019-03-31T04:58:53.901Z,18.33
2019-03-31T05:01:24.097Z,17.53
2019-03-31T05:04:04.349Z,15.77
2019-03-31T05:06:25.111Z,17.17
2019-03-31T05:08:54.627Z,17.03
2019-03-31T05:11:25.140Z,15.83
2019-03-31T05:13:54.749Z,15.80
2019-03-31T05:16:24.284Z,16.53
2019-03-31T05:18:53.824Z,16.40
2019-03-31T05:21:23.439Z,15.10
2019-03-31T05:23:52.951Z,15.30
2019-03-31T05:26:23.175Z,14.80
2019-03-31T05:28:52.682Z,13.90
2019-03-31T05:31:22.203Z,15.87
2019-03-31T05:33:52.861Z,15.63
2019-03-31T05:36:22.395Z,14.60
2019-03-31T05:38:51.928Z,14.83
2019-03-31T05:41:21.465Z,13.23
2019-03-31T05:44:04.781Z,13.17
2019-03-31T05:46:22.491Z,12.43
2019-03-31T05:48:52.061Z,11.20
2019-03-31T05:51:21.578Z,10.07
2019-03-31T05:53:51.106Z,9.90
2019-03-31T05:56:20.886Z,7.30
2019-03-31T05:58:50.494Z,6.40
2019-03-31T06:01:19.995Z,6.03
2019-03-31T06:03:49.594Z,4.53
2019-03-31T06:06:20.364Z,4.20
2019-03-31T06:08:50.054Z,3.80
2019-03-31T06:11:19.676Z,4.13
2019-03-31T06:13:51.500Z,3.47
2019-03-31T06:16:21.090Z,3.10
2019-03-31T06:18:50.956Z,2.90
2019-03-31T06:21:20.517Z,2.90
2019-03-31T06:23:50.119Z,3.07
2019-03-31T06:26:20.222Z,2.80
2019-03-31T06:28:49.904Z,2.80
2019-03-31T06:31:19.464Z,2.57
2019-03-31T06:33:49.117Z,2.30
2019-03-31T06:36:18.778Z,2.77
2019-03-31T06:38:48.307Z,2.17
2019-03-31T06:41:17.949Z,2.00
2019-03-31T06:43:47.652Z,1.73
2019-03-31T06:46:17.288Z,3.03
2019-03-31T06:48:46.954Z,2.70
2019-03-31T06:51:17.350Z,2.70
2019-03-31T06:53:47.156Z,2.50
2019-03-31T06:56:16.917Z,3.00
2019-03-31T06:58:46.498Z,2.27
2019-03-31T07:01:17.270Z,2.17
2019-03-31T07:03:47.151Z,2.57
2019-03-31T07:06:16.727Z,2.73
2019-03-31T07:08:46.248Z,2.90
2019-03-31T07:11:15.848Z,2.80
2019-03-31T07:13:45.376Z,2.67
2019-03-31T07:16:14.960Z,2.50
2019-03-31T07:18:47.333Z,2.77
2019-03-31T07:21:18.945Z,3.00
2019-03-31T07:23:48.540Z,2.80
2019-03-31T07:26:18.410Z,2.63
2019-03-31T07:28:47.933Z,3.13
2019-03-31T07:31:17.545Z,2.60
2019-03-31T07:33:47.119Z,3.13
2019-03-31T07:36:16.806Z,2.30
2019-03-31T07:38:46.399Z,2.73
2019-03-31T07:41:20.102Z,3.70
2019-03-31T07:43:50.227Z,2.67
2019-03-31T07:46:19.809Z,2.90
2019-03-31T07:48:49.437Z,2.87
2019-03-31T07:51:20.740Z,2.80
2019-03-31T07:53:50.329Z,3.50
2019-03-31T07:56:20.004Z,2.83
2019-03-31T07:58:51.107Z,3.80
2019-03-31T08:01:20.730Z,3.00
2019-03-31T08:03:50.343Z,3.13
2019-03-31T08:06:19.883Z,3.87
2019-03-31T08:08:53.122Z,3.10
2019-03-31T08:11:41.790Z,3.57
2019-03-31T08:14:11.397Z,3.13
2019-03-31T08:16:40.901Z,3.07
2019-03-31T08:19:10.558Z,3.33
2019-03-31T08:21:40.169Z,2.50
2019-03-31T08:24:10.677Z,2.87
2019-03-31T08:26:40.217Z,3.50
2019-03-31T08:29:12.507Z,3.10
2019-03-31T08:31:42.106Z,3.13
2019-03-31T08:34:11.876Z,4.17
2019-03-31T08:36:41.503Z,3.30
2019-03-31T08:39:11.195Z,2.37
2019-03-31T08:41:41.208Z,2.57
2019-03-31T08:44:11.013Z,2.40
2019-03-31T08:46:40.522Z,3.37
2019-03-31T08:49:10.149Z,3.50
2019-03-31T08:51:41.426Z,3.20
2019-03-31T08:54:10.999Z,2.70
2019-03-31T08:56:40.745Z,3.17
2019-03-31T08:59:10.349Z,3.10
2019-03-31T09:01:40.172Z,3.07
2019-03-31T09:04:09.763Z,4.20
2019-03-31T09:06:39.369Z,2.50
2019-03-31T09:09:11.615Z,2.70
2019-03-31T09:11:42.822Z,2.67
2019-03-31T09:14:12.356Z,3.40
2019-03-31T09:16:42.025Z,2.10
2019-03-31T09:19:11.745Z,3.27
2019-03-31T09:21:41.339Z,3.07
2019-03-31T09:24:10.849Z,2.50
2019-03-31T09:26:40.579Z,3.07
2019-03-31T09:29:10.244Z,2.43
2019-03-31T09:31:40.000Z,2.50
2019-03-31T09:34:10.117Z,2.97
2019-03-31T09:36:39.729Z,2.57
2019-03-31T09:39:09.267Z,2.67
2019-03-31T09:41:39.238Z,3.27
2019-03-31T09:44:09.057Z,3.00
2019-03-31T09:46:38.757Z,2.70
2019-03-31T09:49:08.485Z,2.60
2019-03-31T09:51:38.131Z,3.17
2019-03-31T09:54:07.837Z,3.53
2019-03-31T09:56:37.841Z,2.80
2019-03-31T09:59:07.558Z,2.80
2019-03-31T10:01:39.069Z,3.00
2019-03-31T10:04:08.886Z,2.57
2019-03-31T10:06:38.735Z,3.10
2019-03-31T10:09:08.590Z,2.20
2019-03-31T10:11:38.431Z,2.20
2019-03-31T10:14:08.168Z,1.97
2019-03-31T10:16:40.773Z,2.27
2019-03-31T10:19:10.658Z,1.60
2019-03-31T10:21:40.383Z,2.17
2019-03-31T10:24:09.872Z,2.50
2019-03-31T10:26:39.775Z,3.63
2019-03-31T10:29:09.382Z,2.70
2019-03-31T10:31:38.926Z,2.53
2019-03-31T10:34:08.560Z,2.03
2019-03-31T10:36:44.458Z,2.70
2019-03-31T10:39:10.099Z,2.30
2019-03-31T10:41:40.112Z,4.53
2019-03-31T10:44:09.796Z,2.67
2019-03-31T10:46:40.953Z,2.47
2019-03-31T10:49:10.676Z,1.90
2019-03-31T10:51:40.310Z,2.13
2019-03-31T10:54:09.999Z,1.87
2019-03-31T10:56:39.625Z,2.20
2019-03-31T10:59:09.574Z,1.83
2019-03-31T11:01:39.376Z,2.13
2019-03-31T11:04:08.988Z,1.53
2019-03-31T11:06:38.614Z,2.10
2019-03-31T11:09:08.973Z,1.73
2019-03-31T11:11:39.876Z,2.10
2019-03-31T11:14:09.405Z,1.77
2019-03-31T11:16:38.996Z,1.60
2019-03-31T11:19:08.698Z,1.73
2019-03-31T11:21:42.670Z,2.40
2019-03-31T11:24:12.273Z,2.20
2019-03-31T11:26:44.708Z,1.40
2019-03-31T11:29:14.524Z,2.03
2019-03-31T11:31:44.087Z,1.43
2019-03-31T11:34:13.731Z,1.90
2019-03-31T11:36:43.360Z,1.90
2019-03-31T11:39:16.126Z,2.13
2019-03-31T11:41:44.142Z,1.90
2019-03-31T11:44:13.738Z,1.90
2019-03-31T11:46:43.277Z,1.70
2019-03-31T11:49:12.982Z,1.50
2019-03-31T11:51:42.715Z,2.00
2019-03-31T11:54:12.417Z,1.83
2019-03-31T11:56:42.161Z,1.97
2019-03-31T11:59:11.669Z,2.00
2019-03-31T12:01:41.263Z,1.83
2019-03-31T12:04:11.346Z,1.87
2019-03-31T12:06:41.624Z,2.30
2019-03-31T12:09:11.232Z,1.73
2019-03-31T12:11:45.380Z,2.70
2019-03-31T12:14:13.639Z,2.23
2019-03-31T12:16:43.352Z,2.10
2019-03-31T12:19:12.985Z,1.97
2019-03-31T12:21:42.739Z,1.43
2019-03-31T12:24:12.370Z,2.60
2019-03-31T12:26:44.261Z,2.03
2019-03-31T12:29:13.840Z,3.07
2019-03-31T12:31:43.517Z,2.63
2019-03-31T12:34:13.293Z,1.83
2019-03-31T12:36:43.051Z,1.50
2019-03-31T12:39:12.819Z,3.70
2019-03-31T12:41:42.540Z,2.10
2019-03-31T12:44:12.231Z,2.30
2019-03-31T12:46:41.752Z,2.20
2019-03-31T12:49:12.341Z,2.37
2019-03-31T12:51:41.931Z,2.57
2019-03-31T12:54:11.992Z,2.23
2019-03-31T12:56:41.537Z,1.57
2019-03-31T12:59:11.059Z,2.00
2019-03-31T13:01:40.720Z,2.37
2019-03-31T13:04:10.357Z,4.17
2019-03-31T13:06:39.931Z,2.53
2019-03-31T13:09:09.992Z,2.63
2019-03-31T13:11:42.654Z,2.97
2019-03-31T13:14:12.174Z,2.70
2019-03-31T13:16:42.151Z,2.63
2019-03-31T13:19:11.717Z,2.80
2019-03-31T13:21:41.391Z,2.30
2019-03-31T13:24:10.973Z,2.30
2019-03-31T13:26:40.538Z,2.43
2019-03-31T13:29:10.991Z,3.37
2019-03-31T13:31:40.542Z,2.03
2019-03-31T13:34:10.319Z,2.80
2019-03-31T13:36:39.955Z,3.10
2019-03-31T13:39:09.730Z,3.00
2019-03-31T13:41:39.435Z,2.57
2019-03-31T13:44:09.025Z,2.97
2019-03-31T13:46:38.792Z,2.37
2019-03-31T13:49:08.428Z,3.00
2019-03-31T13:51:40.252Z,2.77
2019-03-31T13:54:09.805Z,4.47
2019-03-31T13:56:40.048Z,2.93
2019-03-31T13:59:10.148Z,3.33
2019-03-31T14:01:39.737Z,2.67
2019-03-31T14:04:09.299Z,2.53
2019-03-31T14:06:39.231Z,2.83
2019-03-31T14:09:10.877Z,2.60
2019-03-31T14:11:40.750Z,3.03
2019-03-31T14:14:10.254Z,2.67
2019-03-31T14:16:39.891Z,2.93
2019-03-31T14:19:12.932Z,2.97
2019-03-31T14:21:41.125Z,3.47
2019-03-31T14:24:10.801Z,3.60
2019-03-31T14:26:40.586Z,2.60
2019-03-31T14:29:10.107Z,2.83
2019-03-31T14:31:39.743Z,2.70
2019-03-31T14:34:13.343Z,4.00
2019-03-31T14:36:43.050Z,2.60
2019-03-31T14:39:12.859Z,3.20
2019-03-31T14:41:42.888Z,2.93
2019-03-31T14:44:12.536Z,2.80
2019-03-31T14:46:42.152Z,6.73
2019-03-31T14:49:12.314Z,3.57
2019-03-31T14:51:42.004Z,3.57
2019-03-31T14:54:11.637Z,3.20
2019-03-31T14:56:41.472Z,2.80
2019-03-31T14:59:11.120Z,2.80
2019-03-31T15:01:40.621Z,2.80
2019-03-31T15:04:10.255Z,3.20
2019-03-31T15:06:39.976Z,3.60
2019-03-31T15:09:10.285Z,3.30
2019-03-31T15:11:40.132Z,3.20
2019-03-31T15:14:09.708Z,3.07
2019-03-31T15:16:39.265Z,3.27
2019-03-31T15:19:08.953Z,3.53
2019-03-31T15:21:43.892Z,3.10
2019-03-31T15:24:09.757Z,2.40
2019-03-31T15:26:39.408Z,2.83
2019-03-31T15:29:09.415Z,2.80
2019-03-31T15:31:39.915Z,3.00
2019-03-31T15:34:09.556Z,3.17
2019-03-31T15:36:39.156Z,2.90
2019-03-31T15:39:09.650Z,3.13
2019-03-31T15:41:39.397Z,4.80
2019-03-31T15:44:08.919Z,4.77
2019-03-31T15:46:38.516Z,2.97
2019-03-31T15:49:08.203Z,4.60
2019-03-31T15:51:37.832Z,3.03
2019-03-31T15:54:07.611Z,2.97
2019-03-31T15:56:37.213Z,2.77
2019-03-31T15:59:06.836Z,2.80
2019-03-31T16:01:36.404Z,3.20
2019-03-31T16:04:06.279Z,3.00
2019-03-31T16:06:35.796Z,2.40
2019-03-31T16:09:22.358Z,2.77
2019-03-31T16:11:52.900Z,4.60
2019-03-31T16:14:10.599Z,3.50
2019-03-31T16:16:40.113Z,2.87
2019-03-31T16:19:12.247Z,3.43
2019-03-31T16:21:44.286Z,3.17
2019-03-31T16:24:14.159Z,2.67
2019-03-31T16:26:48.129Z,2.70
2019-03-31T16:29:17.667Z,2.60
2019-03-31T16:31:47.165Z,2.40
2019-03-31T16:34:16.900Z,2.70
2019-03-31T16:36:46.567Z,2.60
2019-03-31T16:39:16.553Z,3.10
2019-03-31T16:41:46.267Z,3.63
2019-03-31T16:44:35.693Z,3.60
2019-03-31T16:47:05.402Z,3.90
2019-03-31T16:49:34.936Z,4.03
2019-03-31T16:52:04.477Z,3.50
2019-03-31T16:54:34.427Z,2.60
2019-03-31T16:57:04.022Z,4.10
2019-03-31T16:59:33.603Z,4.50
2019-03-31T17:02:03.211Z,2.83
2019-03-31T17:04:32.737Z,4.07
2019-03-31T17:07:02.354Z,4.00
2019-03-31T17:09:31.875Z,3.10
2019-03-31T17:12:01.629Z,2.80
2019-03-31T17:14:31.133Z,2.80
2019-03-31T17:17:02.833Z,3.70
2019-03-31T17:19:32.387Z,3.30
2019-03-31T17:22:02.010Z,2.93
2019-03-31T17:24:32.026Z,3.07
2019-03-31T17:27:01.570Z,2.87
2019-03-31T17:29:31.075Z,3.13
2019-03-31T17:32:00.641Z,3.90
2019-03-31T17:34:30.155Z,2.90
2019-03-31T17:36:59.717Z,3.20
2019-03-31T17:39:29.713Z,4.17
2019-03-31T17:41:59.522Z,3.47
2019-03-31T17:44:29.586Z,3.70
2019-03-31T17:46:59.573Z,3.60
2019-03-31T17:49:29.426Z,3.93
2019-03-31T17:52:01.185Z,4.07
2019-03-31T17:54:32.567Z,4.50
2019-03-31T17:57:02.865Z,3.60
2019-03-31T17:59:32.778Z,5.93
2019-03-31T18:02:02.954Z,5.00
2019-03-31T18:04:32.921Z,4.00
2019-03-31T18:07:02.945Z,3.30
2019-03-31T18:09:32.847Z,2.80
2019-03-31T18:12:02.904Z,2.87
2019-03-31T18:14:32.994Z,3.50
2019-03-31T18:17:04.824Z,3.27
2019-03-31T18:19:34.597Z,3.70
2019-03-31T18:22:15.930Z,2.43
2019-03-31T18:24:35.718Z,2.70
2019-03-31T18:27:05.475Z,2.60
2019-03-31T18:29:35.117Z,1.77
2019-03-31T18:32:04.879Z,2.37
2019-03-31T18:34:34.979Z,2.10
2019-03-31T18:37:04.741Z,1.80
2019-03-31T18:39:34.761Z,2.00
2019-03-31T18:42:04.670Z,2.43
2019-03-31T18:44:34.321Z,2.40
2019-03-31T18:47:05.564Z,2.30
2019-03-31T18:49:35.329Z,2.20
2019-03-31T18:52:04.991Z,1.90
2019-03-31T18:54:42.697Z,2.50
2019-03-31T18:57:32.355Z,3.33
2019-03-31T19:00:03.415Z,3.00
2019-03-31T19:02:34.913Z,2.83
2019-03-31T19:05:08.552Z,2.87
2019-03-31T19:07:44.843Z,2.77
2019-03-31T19:10:24.616Z,2.77
2019-03-31T19:12:54.138Z,2.30
2019-03-31T19:15:28.426Z,2.40
2019-03-31T19:18:15.190Z,2.53
2019-03-31T19:20:45.170Z,1.63
2019-03-31T19:23:33.799Z,3.30
2019-03-31T19:26:22.108Z,2.50
2019-03-31T19:29:05.675Z,2.80
2019-03-31T19:31:45.003Z,2.70
2019-03-31T19:34:25.173Z,2.70
2019-03-31T19:36:56.987Z,2.20
2019-03-31T19:39:44.685Z,2.07
2019-03-31T19:42:30.529Z,2.90
2019-03-31T19:45:07.943Z,2.40
2019-03-31T19:47:43.826Z,4.70
2019-03-31T19:50:16.297Z,2.80
2019-03-31T19:52:47.599Z,3.10
2019-03-31T19:55:18.993Z,3.27
2019-03-31T19:57:56.249Z,3.00
2019-03-31T20:00:33.951Z,2.67
2019-03-31T20:03:05.539Z,2.73
2019-03-31T20:05:38.640Z,2.40
2019-03-31T20:08:26.750Z,2.70
2019-03-31T20:10:56.667Z,2.60
2019-03-31T20:13:28.168Z,2.73
2019-03-31T20:16:02.811Z,2.30
2019-03-31T20:18:38.592Z,2.97
2019-03-31T20:21:11.225Z,2.50
2019-03-31T20:23:54.560Z,3.73
2019-03-31T20:26:30.008Z,2.90
2019-03-31T20:29:10.117Z,3.30
2019-03-31T20:31:45.063Z,3.77
2019-03-31T20:34:19.268Z,3.60
2019-03-31T20:36:55.333Z,4.00
2019-03-31T20:39:35.495Z,3.50
2019-03-31T20:42:06.797Z,3.20
2019-03-31T20:44:36.801Z,3.60
2019-03-31T20:47:06.930Z,3.90
2019-03-31T20:49:37.158Z,3.77
2019-03-31T20:52:07.170Z,3.97
2019-03-31T20:54:37.158Z,3.07
2019-03-31T20:57:06.762Z,3.60
2019-03-31T20:59:36.347Z,3.20
2019-03-31T21:02:06.003Z,3.20
2019-03-31T21:04:39.414Z,3.87
2019-03-31T21:07:10.079Z,3.47
2019-03-31T21:09:45.194Z,3.00
2019-03-31T21:12:11.181Z,3.70
2019-03-31T21:14:40.703Z,4.23
2019-03-31T21:17:10.782Z,3.93
2019-03-31T21:19:40.390Z,3.30
2019-03-31T21:22:09.998Z,3.50
2019-03-31T21:24:39.610Z,3.47
2019-03-31T21:27:09.315Z,3.30
2019-03-31T21:29:41.802Z,3.77
2019-03-31T21:32:12.428Z,4.10
2019-03-31T21:34:42.443Z,4.20
2019-03-31T21:37:12.100Z,4.90
2019-03-31T21:39:41.701Z,5.33
2019-03-31T21:42:11.520Z,5.33
2019-03-31T21:44:42.652Z,5.60
2019-03-31T21:47:12.240Z,5.27
2019-03-31T21:49:41.875Z,5.00
2019-03-31T21:52:11.484Z,5.60
2019-03-31T21:54:42.126Z,4.30
2019-03-31T21:57:11.777Z,4.40
2019-03-31T21:59:41.340Z,5.17
2019-03-31T22:02:11.006Z,4.93
2019-03-31T22:04:40.682Z,5.00
2019-03-31T22:07:10.356Z,4.80
2019-03-31T22:09:40.585Z,4.97
2019-03-31T22:12:10.198Z,4.80
2019-03-31T22:14:39.802Z,4.77
2019-03-31T22:17:09.400Z,4.47
2019-03-31T22:19:39.033Z,4.53
2019-03-31T22:22:08.574Z,4.20
2019-03-31T22:24:38.116Z,3.80
2019-03-31T22:27:08.056Z,5.07
2019-03-31T22:29:37.682Z,5.40
2019-03-31T22:32:07.698Z,4.00
2019-03-31T22:34:37.828Z,4.70
2019-03-31T22:37:07.403Z,4.90
2019-03-31T22:39:37.166Z,4.20
2019-03-31T22:42:07.155Z,5.00
2019-03-31T22:44:36.867Z,4.60
2019-03-31T22:47:09.677Z,4.60
2019-03-31T22:49:39.291Z,3.90
2019-03-31T22:52:08.945Z,3.00
2019-03-31T22:54:38.670Z,4.20
2019-03-31T22:57:08.513Z,4.97
2019-03-31T22:59:38.114Z,6.50
2019-03-31T23:02:08.354Z,4.60
2019-03-31T23:04:38.040Z,4.80
2019-03-31T23:07:07.603Z,4.50
2019-03-31T23:09:37.184Z,3.77
2019-03-31T23:12:06.859Z,4.13
2019-03-31T23:14:36.450Z,3.27
2019-03-31T23:17:06.679Z,4.57
2019-03-31T23:19:36.869Z,3.47
2019-03-31T23:22:10.127Z,2.77
2019-03-31T23:24:39.744Z,3.10
2019-03-31T23:27:09.344Z,3.80
2019-03-31T23:29:39.407Z,3.40
2019-03-31T23:32:09.093Z,3.87
2019-03-31T23:34:41.096Z,3.52
2019-03-31T23:37:10.845Z,3.73
2019-03-31T23:39:40.508Z,3.60
2019-03-31T23:42:10.170Z,4.17
2019-03-31T23:44:39.862Z,3.00
2019-03-31T23:47:09.865Z,3.62
2019-03-31T23:50:01.182Z,3.47
2019-03-31T23:52:30.706Z,3.37
2019-03-31T23:55:00.388Z,4.22
2019-03-31T23:57:42.906Z,3.77
